ENTO/TRF METAR and TAF weather

Enter ICAO airport designator
Station Type Date Time Source
ENTO METAR 2021/08/05 05:20 UTC NOAA

ENTO 050520Z VRB02KT CAVOK 15/10 Q1014 NOSIG


Station Type Date Time Source
ENTO Decoded METAR 2021/08/05 05:20 UTC NOAA

Torp, Norway (ENTO) 59-12N 010-16E 88M
Aug 05, 2021 - 01:20 AM EDT / 2021.08.05 0520 UTC
Wind: Variable at 2 MPH (2 KT):0
Visibility: greater than 7 mile(s):0
Temperature: 59 F (15 C)
Dew Point: 50 F (10 C)
Relative Humidity: 72%
Pressure (altimeter): 29.94 in. Hg (1014 hPa)
ob: ENTO 050520Z VRB02KT CAVOK 15/10 Q1014 NOSIG
cycle: 5

Station Type Date Time Source
ENTO TAF 2021/08/04 18:59 UTC NOAA

TAF ENTO 041700Z 0418/0518 18008KT CAVOK PROB30 0503/0509 BKN014

Example: see airport list